Time;durP1;ratioP1;P1;durP2;ratioP2;P2;SDS_P1;SDS_P2;PMS_P1;PMS_P2;Temp;Humidity;BMP_temperature;BMP_pressure;BME280_temperature;BME280_humidity;BME280_pressure;Samples;Min_cycle;Max_cycle;Signal;HPM_P1;HPM_P2
2023/12/05 09:59:04;;;;;;;15.20;5.50;;;6.50;99.90;;;;;;4878003;29;20227;-77
2023/12/05 10:01:32;;;;;;;21.00;5.43;;;6.50;99.90;;;;;;4878325;29;20242;-73
2023/12/05 10:04:01;;;;;;;14.67;5.20;;;6.60;99.90;;;;;;4874716;29;20317;-74
2023/12/05 10:06:28;;;;;;;11.83;4.27;;;6.60;99.90;;;;;;4876077;29;20290;-72
2023/12/05 10:08:56;;;;;;;12.13;4.40;;;6.50;99.90;;;;;;4879037;29;20632;-74
2023/12/05 10:11:25;;;;;;;12.53;4.33;;;6.50;99.90;;;;;;4882169;29;20242;-73
2023/12/05 10:13:52;;;;;;;11.27;4.47;;;6.40;99.90;;;;;;4882348;29;20274;-74
2023/12/05 10:16:22;;;;;;;17.33;5.90;;;6.30;99.90;;;;;;4877742;29;20251;-73
2023/12/05 10:18:49;;;;;;;11.67;4.30;;;6.20;99.90;;;;;;4863971;29;20219;-72
2023/12/05 10:21:16;;;;;;;10.33;4.63;;;6.20;99.90;;;;;;4875843;29;20250;-72
2023/12/05 10:23:43;;;;;;;11.43;4.60;;;6.20;99.90;;;;;;4863348;29;20239;-74
2023/12/05 10:26:10;;;;;;;14.27;5.63;;;6.20;99.90;;;;;;4863277;29;20331;-73
2023/12/05 10:28:50;;;;;;;13.90;4.80;;;6.30;99.90;;;;;;4863515;29;20251;-78
2023/12/05 10:31:17;;;;;;;11.63;4.47;;;6.30;99.90;;;;;;4870801;29;20217;-76
2023/12/05 10:33:48;;;;;;;12.17;3.70;;;6.20;99.90;;;;;;4900657;29;20269;-75
2023/12/05 10:36:15;;;;;;;11.97;4.17;;;6.10;99.90;;;;;;4896092;29;20211;-78
2023/12/05 10:38:44;;;;;;;11.67;4.00;;;6.20;99.90;;;;;;4882033;29;20222;-77
2023/12/05 10:41:11;;;;;;;10.83;3.97;;;6.40;99.90;;;;;;4879391;29;20215;-77
2023/12/05 10:43:47;;;;;;;13.83;4.00;;;6.40;99.90;;;;;;4862838;29;20718;-76
2023/12/05 10:46:14;;;;;;;9.90;3.53;;;6.40;99.90;;;;;;4863152;29;20242;-79
2023/12/05 10:48:41;;;;;;;9.23;3.40;;;6.60;99.90;;;;;;4863312;29;20747;-76
2023/12/05 10:51:09;;;;;;;7.73;3.20;;;6.60;99.90;;;;;;4864845;29;20247;-77
2023/12/05 10:53:37;;;;;;;7.37;3.33;;;6.60;99.90;;;;;;4863217;29;20269;-78
2023/12/05 10:56:11;;;;;;;6.03;2.63;;;6.50;99.90;;;;;;4865969;29;20566;-78
2023/12/05 10:58:40;;;;;;;5.83;2.20;;;6.40;99.90;;;;;;4881342;29;20250;-78
2023/12/05 11:01:09;;;;;;;4.47;2.10;;;6.50;99.90;;;;;;4893958;29;20213;-78
2023/12/05 11:03:38;;;;;;;4.50;2.40;;;6.50;99.90;;;;;;4862912;29;20212;-76
2023/12/05 11:06:06;;;;;;;8.47;2.80;;;6.50;99.90;;;;;;4862620;29;20264;-74
2023/12/05 11:08:35;;;;;;;7.60;3.50;;;6.40;99.90;;;;;;4862934;29;20231;-74
2023/12/05 11:11:04;;;;;;;8.77;2.83;;;6.40;99.90;;;;;;4863535;29;20251;-77
2023/12/05 11:13:33;;;;;;;8.77;3.57;;;6.60;99.90;;;;;;4862642;29;20251;-77
2023/12/05 11:16:05;;;;;;;6.83;3.23;;;6.70;99.90;;;;;;4862749;29;20215;-77
2023/12/05 11:18:37;;;;;;;9.67;3.70;;;6.70;99.90;;;;;;4862473;29;20451;-77
2023/12/05 11:21:19;;;;;;;7.80;3.33;;;6.70;99.90;;;;;;4865384;29;20242;-77
2023/12/05 11:24:08;;;;;;;9.73;3.83;;;6.60;99.90;;;;;;4862864;29;20311;-74
2023/12/05 11:26:58;;;;;;;7.00;3.47;;;6.40;99.90;;;;;;4862187;29;20236;-75
2023/12/05 11:29:50;;;;;;;9.03;3.07;;;6.40;99.90;;;;;;4898472;29;20264;-75
2023/12/05 11:32:24;;;;;;;10.33;3.93;;;6.20;99.90;;;;;;4878941;29;20255;-75
2023/12/05 11:35:02;;;;;;;8.47;3.20;;;6.20;99.90;;;;;;4862252;29;20790;-74
2023/12/05 11:37:43;;;;;;;11.37;3.97;;;6.20;99.90;;;;;;4862185;29;20299;-74
2023/12/05 11:40:12;;;;;;;10.03;4.03;;;6.20;99.90;;;;;;4862261;29;20243;-73
2023/12/05 11:43:09;;;;;;;12.77;4.03;;;6.30;99.90;;;;;;4866001;29;20251;-74
2023/12/05 11:45:38;;;;;;;10.10;3.90;;;6.10;99.90;;;;;;4877688;29;20239;-73
2023/12/05 11:48:05;;;;;;;12.50;4.00;;;6.10;99.90;;;;;;4880314;29;20211;-74
2023/12/05 11:50:41;;;;;;;12.93;4.33;;;6.10;99.90;;;;;;4880501;29;20247;-74
2023/12/05 11:53:08;;;;;;;12.27;4.63;;;5.90;99.90;;;;;;4880769;29;20214;-73
2023/12/05 11:55:37;;;;;;;7.60;3.67;;;6.10;99.90;;;;;;4880020;29;20665;-74
2023/12/05 11:58:04;;;;;;;14.50;4.60;;;6.20;99.90;;;;;;4879980;29;20254;-74
2023/12/05 12:00:32;;;;;;;15.33;4.23;;;6.10;99.90;;;;;;4880050;29;20242;-74
2023/12/05 12:03:01;;;;;;;11.87;3.83;;;6.10;99.90;;;;;;4878917;29;20302;-74
2023/12/05 12:05:28;;;;;;;12.30;3.90;;;6.00;99.90;;;;;;4879748;29;20371;-73
2023/12/05 12:07:56;;;;;;;9.03;3.90;;;6.00;99.90;;;;;;4880046;29;20213;-74
2023/12/05 12:10:24;;;;;;;10.10;4.03;;;5.90;99.90;;;;;;4880492;29;20246;-74
2023/12/05 12:12:52;;;;;;;9.90;3.17;;;5.80;99.90;;;;;;4880172;29;20250;-74
2023/12/05 12:15:21;;;;;;;13.70;4.07;;;5.80;99.90;;;;;;4880224;29;20235;-75
2023/12/05 12:17:49;;;;;;;9.67;3.67;;;5.60;99.90;;;;;;4879644;29;20291;-75
2023/12/05 12:20:16;;;;;;;9.63;3.00;;;5.70;99.90;;;;;;4871176;29;20678;-74
2023/12/05 12:22:44;;;;;;;13.87;4.30;;;5.60;99.90;;;;;;4867175;29;20242;-75
2023/12/05 12:25:12;;;;;;;12.90;4.47;;;5.70;99.90;;;;;;4879226;29;20286;-74
2023/12/05 12:27:39;;;;;;;11.83;3.43;;;5.70;99.90;;;;;;4879447;29;20308;-74
2023/12/05 12:30:13;;;;;;;13.37;4.40;;;5.70;99.90;;;;;;4882177;29;20215;-74
2023/12/05 12:32:53;;;;;;;12.40;4.00;;;5.80;99.90;;;;;;4879589;29;20734;-74
2023/12/05 12:35:22;;;;;;;17.60;5.43;;;5.80;99.90;;;;;;4879126;29;20238;-74
2023/12/05 12:37:49;;;;;;;14.97;4.93;;;5.90;99.90;;;;;;4879518;29;20211;-74
2023/12/05 12:40:18;;;;;;;16.47;5.87;;;5.90;99.90;;;;;;4879226;29;20229;-74
2023/12/05 12:42:45;;;;;;;13.27;4.13;;;5.90;99.90;;;;;;4879036;29;20224;-75
2023/12/05 12:45:13;;;;;;;16.67;5.20;;;6.00;99.90;;;;;;4878874;29;20267;-74
2023/12/05 12:47:42;;;;;;;14.40;4.37;;;5.90;99.90;;;;;;4879172;29;20215;-75
2023/12/05 12:50:09;;;;;;;11.70;3.73;;;6.00;99.90;;;;;;4872853;29;20294;-75
2023/12/05 12:52:36;;;;;;;14.43;4.50;;;6.00;99.90;;;;;;4870003;29;20211;-75
2023/12/05 12:55:04;;;;;;;10.60;3.53;;;6.00;99.90;;;;;;4879231;29;20314;-74
2023/12/05 12:57:31;;;;;;;12.87;4.00;;;6.00;99.90;;;;;;4879256;29;20219;-75
2023/12/05 12:59:58;;;;;;;8.13;3.27;;;5.90;99.90;;;;;;4878123;29;20250;-75
2023/12/05 13:02:26;;;;;;;7.23;2.57;;;5.90;99.90;;;;;;4879109;29;20297;-75
2023/12/05 13:04:55;;;;;;;10.03;3.57;;;5.80;99.90;;;;;;4879452;29;20317;-75
2023/12/05 13:07:25;;;;;;;10.50;3.30;;;5.80;99.90;;;;;;4879475;29;20214;-75
2023/12/05 13:09:52;;;;;;;11.17;3.40;;;5.90;99.90;;;;;;4878748;29;20219;-75
2023/12/05 13:12:19;;;;;;;9.67;3.33;;;5.80;99.90;;;;;;4879443;29;20243;-74
2023/12/05 13:14:49;;;;;;;8.90;3.40;;;5.80;99.90;;;;;;4878927;29;20714;-74
2023/12/05 13:17:16;;;;;;;9.07;3.33;;;5.80;99.90;;;;;;4879323;29;20211;-74
2023/12/05 13:19:45;;;;;;;7.03;2.97;;;5.90;99.90;;;;;;4879206;29;20686;-75
2023/12/05 13:22:12;;;;;;;9.37;3.30;;;5.90;99.90;;;;;;4879382;29;20218;-76
2023/12/05 13:24:39;;;;;;;11.43;4.23;;;5.90;99.90;;;;;;4879016;29;20274;-75
2023/12/05 13:27:06;;;;;;;8.23;2.93;;;6.00;99.90;;;;;;4878863;29;20278;-75
2023/12/05 13:29:33;;;;;;;7.67;3.60;;;6.10;99.90;;;;;;4878813;29;20294;-75
2023/12/05 13:32:00;;;;;;;10.70;3.67;;;6.20;99.90;;;;;;4879006;29;20215;-75
2023/12/05 13:34:27;;;;;;;9.27;3.40;;;6.10;99.90;;;;;;4878249;29;20254;-75
2023/12/05 13:36:55;;;;;;;7.93;3.17;;;6.10;99.90;;;;;;4878979;29;20705;-75
2023/12/05 13:39:22;;;;;;;11.77;4.20;;;6.10;99.90;;;;;;4879254;29;20285;-75
2023/12/05 13:41:49;;;;;;;8.47;3.33;;;6.00;99.90;;;;;;4879139;29;20215;-75
2023/12/05 13:44:16;;;;;;;9.73;3.37;;;6.10;99.90;;;;;;4878796;29;20292;-75
2023/12/05 13:46:43;;;;;;;10.10;3.10;;;6.10;99.90;;;;;;4878890;29;20274;-75
2023/12/05 13:49:10;;;;;;;10.13;3.83;;;6.20;99.90;;;;;;4879121;29;20230;-75
2023/12/05 13:51:37;;;;;;;10.20;3.60;;;6.00;99.90;;;;;;4879135;29;20261;-75
2023/12/05 13:54:05;;;;;;;10.37;3.67;;;5.90;99.90;;;;;;4878943;29;20270;-75
2023/12/05 13:56:33;;;;;;;14.43;4.80;;;6.00;99.90;;;;;;4878977;29;20247;-77
2023/12/05 13:59:00;;;;;;;11.27;4.13;;;6.00;99.90;;;;;;4878694;29;20223;-76
2023/12/05 14:01:27;;;;;;;11.53;4.37;;;5.90;99.90;;;;;;4878948;29;20246;-76
2023/12/05 14:03:54;;;;;;;10.17;3.87;;;5.90;99.90;;;;;;4878943;29;20269;-76
2023/12/05 14:06:21;;;;;;;11.80;4.47;;;5.90;99.90;;;;;;4878757;29;20325;-76
2023/12/05 14:08:47;;;;;;;10.00;3.43;;;5.90;99.90;;;;;;4879174;29;20639;-72
2023/12/05 14:11:16;;;;;;;10.47;4.27;;;5.90;99.90;;;;;;4878818;29;20211;-79
2023/12/05 14:13:43;;;;;;;10.10;4.13;;;5.80;99.90;;;;;;4878734;29;20239;-71
2023/12/05 14:16:09;;;;;;;9.20;3.73;;;5.80;99.90;;;;;;4878802;29;20239;-77
2023/12/05 14:18:36;;;;;;;9.60;3.87;;;5.90;99.90;;;;;;4878528;29;20263;-82
2023/12/05 14:21:04;;;;;;;11.43;3.97;;;5.70;99.90;;;;;;4878949;29;20242;-80
2023/12/05 14:23:31;;;;;;;10.70;3.70;;;5.80;99.90;;;;;;4878759;29;20214;-79
2023/12/05 14:25:58;;;;;;;13.13;4.10;;;5.80;99.90;;;;;;4879410;29;20733;-78
2023/12/05 14:28:26;;;;;;;11.63;4.23;;;5.80;99.90;;;;;;4878868;29;20246;-77
2023/12/05 14:30:53;;;;;;;8.33;3.03;;;5.80;99.90;;;;;;4878890;29;20215;-74
2023/12/05 14:33:20;;;;;;;10.10;3.10;;;5.80;99.90;;;;;;4878589;29;20239;-77
2023/12/05 14:35:47;;;;;;;9.50;3.27;;;5.80;99.90;;;;;;4878396;29;20262;-77
2023/12/05 14:38:16;;;;;;;8.57;3.50;;;5.90;99.90;;;;;;4878598;29;20687;-74
2023/12/05 14:40:43;;;;;;;7.63;3.10;;;6.00;99.90;;;;;;4878544;29;20674;-73
2023/12/05 14:43:10;;;;;;;7.57;3.37;;;5.90;99.90;;;;;;4878704;29;20208;-73
2023/12/05 14:45:38;;;;;;;10.37;3.87;;;5.80;99.90;;;;;;4879978;29;20287;-76
2023/12/05 14:48:06;;;;;;;9.73;3.80;;;5.80;99.90;;;;;;4881640;29;20246;-73
2023/12/05 14:50:33;;;;;;;7.13;3.33;;;5.80;99.90;;;;;;4881764;29;20734;-77
2023/12/05 14:52:59;;;;;;;7.47;3.23;;;5.80;99.90;;;;;;4881980;29;20247;-72
2023/12/05 14:55:26;;;;;;;7.07;3.03;;;5.70;99.90;;;;;;4881799;29;20266;-73
2023/12/05 14:57:53;;;;;;;10.00;3.60;;;5.80;99.90;;;;;;4881241;29;20250;-76
2023/12/05 15:00:21;;;;;;;8.60;3.23;;;5.90;99.90;;;;;;4882151;29;20571;-72
2023/12/05 15:02:49;;;;;;;7.03;2.93;;;5.90;99.90;;;;;;4877794;29;20619;-75
2023/12/05 15:05:16;;;;;;;11.23;3.10;;;5.90;99.90;;;;;;4881136;29;20235;-75
2023/12/05 15:07:43;;;;;;;12.50;3.63;;;5.90;99.90;;;;;;4872057;29;20740;-76
2023/12/05 15:10:10;;;;;;;8.60;3.23;;;5.90;99.90;;;;;;4881410;29;20246;-74
2023/12/05 15:12:37;;;;;;;9.30;3.30;;;5.90;99.90;;;;;;4870437;29;20300;-73
2023/12/05 15:15:05;;;;;;;8.30;3.57;;;5.90;99.90;;;;;;4862289;29;20267;-74
2023/12/05 15:17:32;;;;;;;8.63;3.50;;;6.10;99.90;;;;;;4862360;29;20211;-72
2023/12/05 15:20:00;;;;;;;10.57;4.30;;;6.00;99.90;;;;;;4866039;29;20635;-72
2023/12/05 15:22:27;;;;;;;13.80;3.67;;;5.80;99.90;;;;;;4872312;29;20692;-74
2023/12/05 15:24:54;;;;;;;8.30;4.00;;;5.90;99.90;;;;;;4862794;29;20267;-73
2023/12/05 15:27:21;;;;;;;9.43;3.67;;;5.80;99.90;;;;;;4862527;29;20319;-73
2023/12/05 15:29:48;;;;;;;11.83;4.60;;;5.70;99.90;;;;;;4862310;29;20299;-71
2023/12/05 15:32:15;;;;;;;10.37;3.47;;;5.80;99.90;;;;;;4863964;29;20212;-73
2023/12/05 15:34:42;;;;;;;8.73;3.83;;;5.70;99.90;;;;;;4862189;29;20271;-74
2023/12/05 15:37:10;;;;;;;10.10;3.80;;;5.70;99.90;;;;;;4862258;29;20683;-72
2023/12/05 15:39:39;;;;;;;8.93;3.90;;;5.60;99.90;;;;;;4862146;29;20247;-73
2023/12/05 15:42:06;;;;;;;12.70;3.87;;;5.70;99.90;;;;;;4864506;29;20216;-74
2023/12/05 15:44:33;;;;;;;10.80;4.20;;;5.70;99.90;;;;;;4862176;29;20319;-73
2023/12/05 15:47:00;;;;;;;14.43;4.40;;;5.70;99.90;;;;;;4862278;29;20274;-75
2023/12/05 15:49:27;;;;;;;14.07;3.60;;;5.70;99.90;;;;;;4861904;29;20714;-74
2023/12/05 15:51:54;;;;;;;10.73;3.80;;;5.70;99.90;;;;;;4864892;29;20620;-73
2023/12/05 15:54:22;;;;;;;10.17;4.00;;;5.80;99.90;;;;;;4862332;29;20239;-74
2023/12/05 15:56:49;;;;;;;11.67;4.47;;;5.80;99.90;;;;;;4866560;29;20254;-74
2023/12/05 15:59:17;;;;;;;13.57;4.27;;;5.80;99.90;;;;;;4880125;29;20299;-73
2023/12/05 16:01:44;;;;;;;9.03;3.30;;;5.70;99.90;;;;;;4879278;29;20215;-74
2023/12/05 16:04:11;;;;;;;8.60;3.70;;;5.70;99.90;;;;;;4861933;29;20239;-75
2023/12/05 16:06:37;;;;;;;11.10;4.07;;;5.80;99.90;;;;;;4861768;29;20275;-74
2023/12/05 16:09:04;;;;;;;7.90;3.30;;;5.90;99.90;;;;;;4861766;29;20739;-74
2023/12/05 16:11:33;;;;;;;11.97;5.00;;;5.90;99.90;;;;;;4864540;29;20204;-76
2023/12/05 16:14:00;;;;;;;12.40;4.40;;;5.80;99.90;;;;;;4861886;29;20278;-79
2023/12/05 16:16:26;;;;;;;10.03;4.40;;;5.90;99.90;;;;;;4861800;29;20357;-75
2023/12/05 16:18:53;;;;;;;12.40;5.50;;;5.90;99.90;;;;;;4861575;29;20208;-77
2023/12/05 16:21:20;;;;;;;10.53;4.57;;;5.90;99.90;;;;;;4864413;29;20212;-76
2023/12/05 16:23:49;;;;;;;11.43;4.70;;;6.00;99.90;;;;;;4866507;29;20284;-71
2023/12/05 16:26:16;;;;;;;12.87;4.20;;;6.00;99.90;;;;;;4863287;29;20777;-73
2023/12/05 16:28:44;;;;;;;11.07;4.23;;;6.00;99.90;;;;;;4861376;29;20247;-75
2023/12/05 16:31:11;;;;;;;11.77;4.03;;;6.00;99.90;;;;;;4861300;29;20256;-75
2023/12/05 16:33:38;;;;;;;10.03;4.57;;;6.00;99.90;;;;;;4861306;29;20251;-72
2023/12/05 16:36:07;;;;;;;11.20;4.13;;;6.10;99.90;;;;;;4861350;29;20626;-75
2023/12/05 16:38:34;;;;;;;12.80;4.87;;;6.10;99.90;;;;;;4861300;29;20216;-73
2023/12/05 16:41:01;;;;;;;12.50;4.27;;;6.10;99.90;;;;;;4861001;29;20254;-73
2023/12/05 16:43:28;;;;;;;14.43;5.07;;;6.10;99.90;;;;;;4861092;29;20307;-73
2023/12/05 16:45:56;;;;;;;11.50;5.10;;;6.10;99.90;;;;;;4861120;29;20254;-72
2023/12/05 16:48:23;;;;;;;10.53;4.10;;;6.10;99.90;;;;;;4861447;29;20613;-73
2023/12/05 16:50:52;;;;;;;10.60;4.40;;;6.10;99.90;;;;;;4861193;29;20243;-75
2023/12/05 16:53:19;;;;;;;10.23;4.40;;;6.20;99.90;;;;;;4861145;29;20215;-75
2023/12/05 16:55:45;;;;;;;14.40;5.17;;;6.20;99.90;;;;;;4861332;29;20336;-73
2023/12/05 16:58:12;;;;;;;12.73;4.87;;;6.10;99.90;;;;;;4860714;29;20314;-75
2023/12/05 17:00:39;;;;;;;9.53;4.27;;;6.10;99.90;;;;;;4861301;29;20633;-73
2023/12/05 17:03:08;;;;;;;12.93;4.70;;;6.10;99.90;;;;;;4860944;29;20264;-75
2023/12/05 17:05:34;;;;;;;14.23;5.80;;;6.20;99.90;;;;;;4860972;29;20271;-72
2023/12/05 17:08:01;;;;;;;10.73;4.70;;;6.10;99.90;;;;;;4860759;29;20326;-74
2023/12/05 17:10:28;;;;;;;15.10;5.13;;;6.10;99.90;;;;;;4860659;29;20247;-71
2023/12/05 17:12:55;;;;;;;10.17;4.43;;;6.00;99.90;;;;;;4860705;29;20280;-74
2023/12/05 17:15:22;;;;;;;12.40;4.73;;;6.00;99.90;;;;;;4861064;29;20259;-74
2023/12/05 17:17:49;;;;;;;18.43;6.13;;;6.00;99.90;;;;;;4860825;29;20247;-75
2023/12/05 17:20:17;;;;;;;14.23;5.50;;;6.10;99.90;;;;;;4860764;29;20216;-71
2023/12/05 17:22:47;;;;;;;12.67;5.10;;;6.10;99.90;;;;;;4860557;29;20303;-75
2023/12/05 17:25:14;;;;;;;12.87;5.10;;;6.10;99.90;;;;;;4860912;29;20271;-75
2023/12/05 17:27:41;;;;;;;11.30;4.47;;;6.10;99.90;;;;;;4860741;29;20300;-74
2023/12/05 17:30:09;;;;;;;11.53;5.37;;;6.10;99.90;;;;;;4860596;29;20239;-74
2023/12/05 17:32:36;;;;;;;13.87;5.73;;;6.10;99.90;;;;;;4860521;29;20667;-74
2023/12/05 17:35:05;;;;;;;11.07;4.53;;;6.10;99.90;;;;;;4860301;29;20272;-72
2023/12/05 17:37:34;;;;;;;14.33;5.60;;;6.10;99.90;;;;;;4860556;29;20208;-74
2023/12/05 17:40:02;;;;;;;17.07;6.00;;;6.10;99.90;;;;;;4860861;29;20216;-73
2023/12/05 17:42:29;;;;;;;11.90;4.77;;;6.10;99.90;;;;;;4860515;29;20216;-75
2023/12/05 17:44:56;;;;;;;14.30;5.57;;;6.20;99.90;;;;;;4863783;29;20262;-74
2023/12/05 17:47:24;;;;;;;14.13;5.43;;;6.20;99.90;;;;;;4875758;29;20590;-75
2023/12/05 17:49:55;;;;;;;13.37;5.90;;;6.30;99.90;;;;;;4876443;29;20253;-73
2023/12/05 17:52:22;;;;;;;12.73;5.53;;;6.20;99.90;;;;;;4870637;29;20290;-74
2023/12/05 17:54:50;;;;;;;13.17;5.83;;;6.20;99.90;;;;;;4877300;29;20270;-76
2023/12/05 17:57:17;;;;;;;14.80;6.03;;;6.20;99.90;;;;;;4875074;29;20754;-73
2023/12/05 17:59:44;;;;;;;11.10;4.63;;;6.10;99.90;;;;;;4878205;29;20291;-78
2023/12/05 18:02:11;;;;;;;12.00;5.57;;;6.20;99.90;;;;;;4878317;29;20226;-75
2023/12/05 18:04:40;;;;;;;14.23;5.23;;;6.40;99.90;;;;;;4875258;29;20235;-79
2023/12/05 18:07:07;;;;;;;12.43;5.37;;;6.40;99.90;;;;;;4876349;29;21008;-76
2023/12/05 18:09:34;;;;;;;14.63;6.37;;;6.50;99.90;;;;;;4877745;29;20299;-74
2023/12/05 18:12:02;;;;;;;16.37;5.90;;;6.40;99.90;;;;;;4877811;29;20754;-76
2023/12/05 18:14:29;;;;;;;11.87;5.13;;;6.50;99.90;;;;;;4878848;29;20263;-77
2023/12/05 18:16:56;;;;;;;15.33;5.80;;;6.50;99.90;;;;;;4876421;29;20243;-75
2023/12/05 18:19:23;;;;;;;12.60;4.77;;;6.40;99.90;;;;;;4878075;29;20203;-75
2023/12/05 18:21:50;;;;;;;10.83;5.10;;;6.40;99.90;;;;;;4876907;29;20231;-71
2023/12/05 18:24:17;;;;;;;12.50;4.70;;;6.40;99.90;;;;;;4864095;29;20286;-74
2023/12/05 18:26:44;;;;;;;14.73;5.17;;;6.40;99.90;;;;;;4874347;29;20215;-74
2023/12/05 18:29:12;;;;;;;12.97;5.00;;;6.40;99.90;;;;;;4880721;29;20627;-74
2023/12/05 18:31:39;;;;;;;10.47;4.67;;;6.30;99.90;;;;;;4883633;29;20297;-72
2023/12/05 18:34:06;;;;;;;15.83;5.07;;;6.40;99.90;;;;;;4875294;29;20230;-75
2023/12/05 18:36:33;;;;;;;11.97;5.33;;;6.40;99.90;;;;;;4873964;29;20250;-72
2023/12/05 18:39:00;;;;;;;13.70;5.40;;;6.50;99.90;;;;;;4880315;29;20211;-74
2023/12/05 18:41:27;;;;;;;13.90;5.53;;;6.50;99.90;;;;;;4880534;29;20207;-71
2023/12/05 18:43:54;;;;;;;13.60;6.13;;;6.40;99.90;;;;;;4883614;29;20245;-76
2023/12/05 18:46:22;;;;;;;12.70;5.33;;;6.50;99.90;;;;;;4889562;29;20338;-74
2023/12/05 18:48:49;;;;;;;13.73;6.63;;;6.30;99.90;;;;;;4879793;29;20325;-76
2023/12/05 18:51:16;;;;;;;14.77;5.83;;;6.40;99.90;;;;;;4880331;29;20615;-76
2023/12/05 18:53:43;;;;;;;13.63;6.23;;;6.40;99.90;;;;;;4874281;29;20215;-76
2023/12/05 18:56:10;;;;;;;14.03;5.40;;;6.50;99.90;;;;;;4880147;29;20679;-76
2023/12/05 18:58:37;;;;;;;13.63;5.60;;;6.40;99.90;;;;;;4880038;29;20639;-76
2023/12/05 19:01:04;;;;;;;11.70;5.43;;;6.40;99.90;;;;;;4880569;29;20261;-73
2023/12/05 19:03:32;;;;;;;14.23;6.50;;;6.40;99.90;;;;;;4880633;29;20238;-70
2023/12/05 19:06:00;;;;;;;14.47;5.67;;;6.30;99.90;;;;;;4880865;29;20622;-74
2023/12/05 19:08:27;;;;;;;12.23;5.73;;;6.40;99.90;;;;;;4881176;29;20238;-76
2023/12/05 19:10:54;;;;;;;15.93;6.33;;;6.40;99.90;;;;;;4880152;29;20214;-75
2023/12/05 19:13:21;;;;;;;12.77;6.80;;;6.40;99.90;;;;;;4880148;29;20317;-74
2023/12/05 19:15:48;;;;;;;12.10;4.47;;;6.40;99.90;;;;;;4880546;29;20254;-74
2023/12/05 19:18:15;;;;;;;12.03;6.03;;;6.40;99.90;;;;;;4880380;29;20258;-72
2023/12/05 19:20:43;;;;;;;13.03;4.27;;;6.30;99.90;;;;;;4880297;29;20261;-73
2023/12/05 19:23:10;;;;;;;10.17;4.80;;;6.30;99.90;;;;;;4876464;29;20249;-74
2023/12/05 19:25:37;;;;;;;11.93;5.50;;;6.30;99.90;;;;;;4868616;29;20258;-74
2023/12/05 19:28:03;;;;;;;13.70;5.20;;;6.30;99.90;;;;;;4879636;29;20326;-70
2023/12/05 19:30:30;;;;;;;10.90;4.93;;;6.30;99.90;;;;;;4878749;29;20239;-74
2023/12/05 19:32:58;;;;;;;14.17;5.03;;;6.30;99.90;;;;;;4878603;29;20215;-73
2023/12/05 19:35:28;;;;;;;12.50;5.03;;;6.20;99.90;;;;;;4879182;29;20230;-72
2023/12/05 19:37:56;;;;;;;12.67;5.00;;;6.50;99.90;;;;;;4879395;29;20211;-74
2023/12/05 19:40:23;;;;;;;10.63;4.83;;;6.40;99.90;;;;;;4880243;29;20234;-74
2023/12/05 19:42:50;;;;;;;11.30;5.47;;;6.30;99.90;;;;;;4879623;29;20238;-74
2023/12/05 19:45:17;;;;;;;10.10;4.93;;;6.30;99.90;;;;;;4880126;29;20260;-73
2023/12/05 19:47:44;;;;;;;7.60;3.90;;;6.30;99.90;;;;;;4879178;29;20806;-74
2023/12/05 19:50:10;;;;;;;10.97;4.90;;;6.20;99.90;;;;;;4879634;29;20632;-75
2023/12/05 19:52:37;;;;;;;8.63;4.53;;;6.20;99.90;;;;;;4879586;29;20234;-73
2023/12/05 19:55:07;;;;;;;9.37;3.83;;;6.20;99.90;;;;;;4871731;29;20231;-71
2023/12/05 19:57:34;;;;;;;11.47;5.60;;;6.30;99.90;;;;;;4875995;29;20237;-75
2023/12/05 20:00:01;;;;;;;10.17;5.03;;;6.30;99.90;;;;;;4881621;29;20240;-72
2023/12/05 20:02:28;;;;;;;8.83;4.40;;;6.20;99.90;;;;;;4872285;29;20243;-75
2023/12/05 20:04:54;;;;;;;9.07;3.77;;;6.10;99.90;;;;;;4872594;29;20269;-73
2023/12/05 20:07:21;;;;;;;8.37;4.10;;;6.20;99.90;;;;;;4873697;29;20274;-72
2023/12/05 20:09:48;;;;;;;11.03;5.03;;;6.20;99.90;;;;;;4878741;29;20250;-73
2023/12/05 20:12:16;;;;;;;8.43;3.90;;;6.20;99.90;;;;;;4877997;29;20246;-73
2023/12/05 20:14:43;;;;;;;8.43;4.00;;;6.10;99.90;;;;;;4878944;29;20290;-73
2023/12/05 20:17:11;;;;;;;8.23;3.40;;;6.10;99.90;;;;;;4879761;29;20243;-73
2023/12/05 20:19:38;;;;;;;7.70;3.80;;;6.10;99.90;;;;;;4879738;29;20275;-73
2023/12/05 20:22:06;;;;;;;8.03;3.37;;;6.00;99.90;;;;;;4879193;29;20671;-72
2023/12/05 20:24:33;;;;;;;7.23;3.83;;;5.80;99.90;;;;;;4879637;29;20595;-73
2023/12/05 20:27:00;;;;;;;6.97;3.37;;;5.70;99.90;;;;;;4878924;29;20234;-73
2023/12/05 20:29:28;;;;;;;7.10;3.50;;;5.60;99.90;;;;;;4878745;29;20239;-73
2023/12/05 20:31:55;;;;;;;6.50;3.33;;;5.60;99.90;;;;;;4878556;29;20242;-73
2023/12/05 20:34:22;;;;;;;6.87;3.40;;;5.60;99.90;;;;;;4879086;29;20262;-73
2023/12/05 20:36:49;;;;;;;5.60;3.10;;;5.60;99.90;;;;;;4879209;29;20250;-73
2023/12/05 20:39:16;;;;;;;6.37;3.07;;;5.60;99.90;;;;;;4879427;29;20305;-74
2023/12/05 20:41:44;;;;;;;6.10;3.37;;;5.60;99.90;;;;;;4878948;29;20636;-74
2023/12/05 20:44:10;;;;;;;6.40;3.83;;;5.50;99.90;;;;;;4878506;29;20729;-71
2023/12/05 20:46:39;;;;;;;6.60;2.80;;;5.40;99.90;;;;;;4878765;29;20211;-74
2023/12/05 20:49:06;;;;;;;6.97;3.17;;;5.50;99.90;;;;;;4878612;29;20330;-73
2023/12/05 20:51:33;;;;;;;6.40;3.13;;;5.70;99.90;;;;;;4877956;29;20218;-73
2023/12/05 20:54:00;;;;;;;6.73;3.43;;;5.50;99.90;;;;;;4877794;29;20258;-74
2023/12/05 20:56:27;;;;;;;6.03;3.27;;;5.50;99.90;;;;;;4878050;29;20250;-73
2023/12/05 20:58:54;;;;;;;5.43;2.60;;;5.40;99.90;;;;;;4889849;29;20752;-73
2023/12/05 21:01:21;;;;;;;5.10;2.43;;;5.40;99.90;;;;;;4872648;29;20591;-73
2023/12/05 21:03:49;;;;;;;5.17;2.80;;;5.50;99.90;;;;;;4878116;29;20262;-75
2023/12/05 21:06:16;;;;;;;5.27;3.20;;;5.50;99.90;;;;;;4878941;29;20210;-72
2023/12/05 21:08:43;;;;;;;8.90;3.50;;;5.60;99.90;;;;;;4878673;29;20333;-73
2023/12/05 21:11:10;;;;;;;5.60;2.60;;;5.70;99.90;;;;;;4878947;29;20207;-73
2023/12/05 21:13:37;;;;;;;6.33;3.20;;;5.60;99.90;;;;;;4878614;29;20257;-72
2023/12/05 21:16:04;;;;;;;6.17;3.10;;;5.60;99.90;;;;;;4878920;29;20236;-73
2023/12/05 21:18:31;;;;;;;5.40;2.80;;;5.50;99.90;;;;;;4873731;29;20615;-73
2023/12/05 21:20:59;;;;;;;5.83;3.10;;;5.40;99.90;;;;;;4878208;29;20245;-73
2023/12/05 21:23:29;;;;;;;6.80;3.20;;;5.40;99.90;;;;;;4878256;29;20299;-72
2023/12/05 21:25:56;;;;;;;6.90;3.13;;;5.40;99.90;;;;;;4878526;29;20215;-73
2023/12/05 21:28:22;;;;;;;7.97;3.83;;;5.40;99.90;;;;;;4878366;29;20304;-74
2023/12/05 21:30:49;;;;;;;5.20;3.00;;;5.50;99.90;;;;;;4878354;29;20658;-71
2023/12/05 21:33:16;;;;;;;6.83;2.90;;;5.50;99.90;;;;;;4878284;29;20242;-74
2023/12/05 21:35:44;;;;;;;7.90;3.13;;;5.50;99.90;;;;;;4878425;29;20277;-74
2023/12/05 21:38:13;;;;;;;6.07;3.00;;;5.50;99.90;;;;;;4878168;29;20258;-73
2023/12/05 21:40:40;;;;;;;7.80;3.57;;;5.50;99.90;;;;;;4878249;29;20324;-71
2023/12/05 21:43:06;;;;;;;7.90;3.10;;;5.50;99.90;;;;;;4877862;29;20674;-73
2023/12/05 21:45:33;;;;;;;8.20;3.43;;;5.60;99.90;;;;;;4878189;29;20234;-73
2023/12/05 21:48:00;;;;;;;6.40;3.60;;;5.60;99.90;;;;;;4877971;29;20318;-75
2023/12/05 21:50:27;;;;;;;6.17;3.10;;;5.50;99.90;;;;;;4878031;29;20265;-75
2023/12/05 21:52:54;;;;;;;6.67;3.33;;;5.50;99.90;;;;;;4877409;29;20208;-75
2023/12/05 21:55:22;;;;;;;8.40;3.57;;;5.50;99.90;;;;;;4879970;29;20265;-73
2023/12/05 21:57:49;;;;;;;8.07;3.53;;;5.40;99.90;;;;;;4881132;29;20254;-75
2023/12/05 22:00:17;;;;;;;6.20;3.00;;;5.50;99.90;;;;;;4882209;29;20211;-74
2023/12/05 22:02:44;;;;;;;7.27;3.73;;;5.50;99.90;;;;;;4881614;29;20242;-73
2023/12/05 22:05:11;;;;;;;7.20;4.03;;;5.60;99.90;;;;;;4881317;29;20237;-74
2023/12/05 22:07:38;;;;;;;7.27;3.20;;;5.70;99.90;;;;;;4881163;29;20298;-74
2023/12/05 22:10:06;;;;;;;5.93;2.83;;;5.70;99.90;;;;;;4881806;29;20215;-73
2023/12/05 22:12:35;;;;;;;5.67;3.07;;;5.70;99.90;;;;;;4880932;29;20306;-73
2023/12/05 22:15:03;;;;;;;8.27;3.87;;;5.60;99.90;;;;;;4881811;29;20257;-75
2023/12/05 22:17:31;;;;;;;7.87;3.67;;;5.60;99.90;;;;;;4881803;29;20655;-74
2023/12/05 22:19:58;;;;;;;6.83;3.50;;;5.40;99.90;;;;;;4882247;29;20638;-74
2023/12/05 22:22:25;;;;;;;7.97;4.03;;;5.50;99.90;;;;;;4881974;29;20667;-74
2023/12/05 22:24:53;;;;;;;6.17;3.73;;;5.40;99.90;;;;;;4881473;29;20235;-74
2023/12/05 22:27:22;;;;;;;6.90;3.67;;;5.40;99.90;;;;;;4870165;29;20422;-74
2023/12/05 22:29:51;;;;;;;7.90;3.90;;;5.50;99.90;;;;;;4880536;29;20242;-74
2023/12/05 22:32:18;;;;;;;6.80;3.77;;;5.40;99.90;;;;;;4868935;29;20259;-73
2023/12/05 22:34:45;;;;;;;6.90;3.67;;;5.50;99.90;;;;;;4881159;29;20230;-74
2023/12/05 22:37:12;;;;;;;8.90;3.53;;;5.50;99.90;;;;;;4881076;29;20230;-75
2023/12/05 22:39:40;;;;;;;6.50;4.17;;;5.40;99.90;;;;;;4881112;29;20215;-77
2023/12/05 22:42:07;;;;;;;7.87;4.37;;;5.50;99.90;;;;;;4877869;29;20277;-76
